createdAt,value
2022-11-29T00:04:13.364Z,20.43
2022-11-29T00:09:11.601Z,21.77
2022-11-29T00:14:04.071Z,22.93
2022-11-29T00:18:56.321Z,21.77
2022-11-29T00:23:48.284Z,22.37
2022-11-29T00:28:40.288Z,22.17
2022-11-29T00:33:32.216Z,22.53
2022-11-29T00:38:24.173Z,23.40
2022-11-29T00:43:16.174Z,22.27
2022-11-29T00:48:08.111Z,22.90
2022-11-29T00:53:00.105Z,22.50
2022-11-29T00:57:51.995Z,21.87
2022-11-29T01:02:43.942Z,23.77
2022-11-29T01:07:36.125Z,24.77
2022-11-29T01:12:28.091Z,23.10
2022-11-29T01:17:20.274Z,25.20
2022-11-29T01:22:13.641Z,22.53
2022-11-29T01:27:05.613Z,24.27
2022-11-29T01:31:58.018Z,24.90
2022-11-29T01:36:49.914Z,23.57
2022-11-29T01:41:41.915Z,24.00
2022-11-29T01:46:39.423Z,25.10
2022-11-29T01:51:34.654Z,25.00
2022-11-29T01:56:28.768Z,24.90
2022-11-29T02:01:20.845Z,24.27
2022-11-29T02:07:29.290Z,23.47
2022-11-29T02:12:34.086Z,24.10
2022-11-29T02:17:56.620Z,25.87
2022-11-29T02:23:02.355Z,27.07
2022-11-29T02:28:15.818Z,24.37
2022-11-29T02:33:29.159Z,26.37
2022-11-29T02:38:38.227Z,26.93
2022-11-29T02:43:45.339Z,26.70
2022-11-29T02:48:53.155Z,27.80
2022-11-29T02:53:58.461Z,25.53
2022-11-29T02:59:05.237Z,29.47
2022-11-29T03:04:17.952Z,27.37
2022-11-29T03:09:26.593Z,27.07
2022-11-29T03:14:29.070Z,28.33
2022-11-29T03:19:56.996Z,29.00
2022-11-29T03:24:58.825Z,28.67
2022-11-29T03:29:58.634Z,28.30
2022-11-29T03:35:18.669Z,27.53
2022-11-29T03:40:15.096Z,28.03
2022-11-29T03:45:24.462Z,28.53
2022-11-29T03:50:46.089Z,28.97
2022-11-29T03:56:21.855Z,29.03
2022-11-29T04:01:28.698Z,26.63
2022-11-29T04:06:48.170Z,28.07
2022-11-29T04:12:06.228Z,27.00
2022-11-29T04:17:00.948Z,27.60
2022-11-29T04:22:20.489Z,27.33
2022-11-29T04:27:41.615Z,27.87
2022-11-29T04:32:36.269Z,26.30
2022-11-29T04:37:53.278Z,26.77
2022-11-29T04:43:15.850Z,26.10
2022-11-29T04:48:23.879Z,26.27
2022-11-29T04:53:35.075Z,26.80
2022-11-29T04:58:46.624Z,27.67
2022-11-29T05:04:12.673Z,25.60
2022-11-29T05:09:22.127Z,28.27
2022-11-29T05:14:41.565Z,26.23
2022-11-29T05:20:04.922Z,25.37
2022-11-29T05:25:34.086Z,26.13
2022-11-29T05:30:35.685Z,26.37
2022-11-29T05:35:39.795Z,27.90
2022-11-29T05:40:46.219Z,26.93
2022-11-29T05:46:04.586Z,23.53
2022-11-29T05:51:54.937Z,24.17
2022-11-29T05:57:10.478Z,24.20
2022-11-29T06:02:21.205Z,25.67
2022-11-29T06:07:22.698Z,22.20
2022-11-29T06:12:21.369Z,23.93
2022-11-29T06:17:39.222Z,23.70
2022-11-29T06:22:53.869Z,23.70
2022-11-29T06:28:14.453Z,24.27
2022-11-29T06:33:18.928Z,22.50
2022-11-29T06:38:22.909Z,23.63
2022-11-29T06:43:15.363Z,24.40
2022-11-29T06:48:10.260Z,23.10
2022-11-29T06:53:08.137Z,22.83
2022-11-29T06:58:36.580Z,23.17
2022-11-29T07:04:11.983Z,24.10
2022-11-29T07:09:14.531Z,23.10
2022-11-29T07:14:06.751Z,22.23
2022-11-29T07:19:27.877Z,22.27
2022-11-29T07:24:28.784Z,22.00
2022-11-29T07:29:41.273Z,22.43
2022-11-29T07:34:53.476Z,22.17
2022-11-29T07:40:05.149Z,21.53
2022-11-29T07:45:23.116Z,20.63
2022-11-29T07:50:15.341Z,21.83
2022-11-29T07:55:17.043Z,21.20
2022-11-29T08:00:11.316Z,21.20
2022-11-29T08:05:07.284Z,22.47
2022-11-29T08:10:00.491Z,20.47
2022-11-29T08:14:52.498Z,20.70
2022-11-29T08:19:44.846Z,20.33
2022-11-29T08:24:36.859Z,20.93
2022-11-29T08:29:28.865Z,19.60
2022-11-29T08:34:22.124Z,19.20
2022-11-29T08:39:14.139Z,18.63
2022-11-29T08:44:06.409Z,17.70
2022-11-29T08:48:58.420Z,18.57
2022-11-29T08:53:51.668Z,17.47
2022-11-29T08:58:43.660Z,19.70
2022-11-29T09:03:54.206Z,17.90
2022-11-29T09:08:46.358Z,17.83
2022-11-29T09:13:38.313Z,17.97
2022-11-29T09:18:30.403Z,18.53
2022-11-29T09:23:22.386Z,17.93
2022-11-29T09:28:14.378Z,15.63
2022-11-29T09:33:06.408Z,17.07
2022-11-29T09:37:58.494Z,17.53
2022-11-29T09:43:00.583Z,16.83
2022-11-29T09:47:58.050Z,16.53
2022-11-29T09:53:12.855Z,16.90
2022-11-29T09:58:09.883Z,15.93
2022-11-29T10:03:17.614Z,16.27
2022-11-29T10:08:34.186Z,16.63
2022-11-29T10:13:34.808Z,15.77
2022-11-29T10:18:34.721Z,15.43
2022-11-29T10:23:38.682Z,16.10
2022-11-29T10:28:33.672Z,15.33
2022-11-29T10:33:29.902Z,17.13
2022-11-29T10:38:32.088Z,15.47
2022-11-29T10:43:25.755Z,16.10
2022-11-29T10:48:21.316Z,15.70
2022-11-29T10:53:15.096Z,17.13
2022-11-29T10:58:23.392Z,17.23
2022-11-29T11:03:45.079Z,18.07
2022-11-29T11:08:43.494Z,17.57
2022-11-29T11:13:37.179Z,16.63
2022-11-29T11:18:29.278Z,16.90
2022-11-29T11:23:27.169Z,18.60
2022-11-29T11:28:22.805Z,18.03
2022-11-29T11:33:22.157Z,18.77
2022-11-29T11:38:17.251Z,18.50
2022-11-29T11:43:20.930Z,18.33
2022-11-29T11:48:15.733Z,18.83
2022-11-29T11:53:27.721Z,18.23
2022-11-29T11:58:23.668Z,17.93
2022-11-29T12:03:48.189Z,17.93
2022-11-29T12:08:40.440Z,18.63
2022-11-29T12:13:35.770Z,19.10
2022-11-29T12:18:36.165Z,17.47
2022-11-29T12:23:42.261Z,17.67
2022-11-29T12:28:38.379Z,17.57
2022-11-29T12:33:37.006Z,16.77
2022-11-29T12:38:37.268Z,18.10
2022-11-29T12:44:03.689Z,19.60
2022-11-29T12:49:37.400Z,19.13
2022-11-29T12:54:38.787Z,18.93
2022-11-29T12:59:55.194Z,20.07
2022-11-29T13:05:22.307Z,19.03
2022-11-29T13:10:30.625Z,17.93
2022-11-29T13:15:58.208Z,19.53
2022-11-29T13:21:15.060Z,18.27
2022-11-29T13:26:12.134Z,21.20
2022-11-29T13:31:13.177Z,20.10
2022-11-29T13:36:23.104Z,20.37
2022-11-29T13:41:27.880Z,20.03
2022-11-29T13:46:30.384Z,21.77
2022-11-29T13:51:28.171Z,21.60
2022-11-29T13:56:36.549Z,22.23
2022-11-29T14:01:28.853Z,23.80
2022-11-29T14:06:31.413Z,22.87
2022-11-29T14:11:28.994Z,23.37
2022-11-29T14:16:50.372Z,24.03
2022-11-29T14:22:06.392Z,24.50
2022-11-29T14:27:13.278Z,23.40
2022-11-29T14:32:20.307Z,21.83
2022-11-29T14:37:41.739Z,22.60
2022-11-29T14:42:33.823Z,21.87
2022-11-29T14:47:38.873Z,23.63
2022-11-29T14:52:39.932Z,24.27
2022-11-29T14:57:50.337Z,22.30
2022-11-29T15:02:57.849Z,22.53
2022-11-29T15:08:10.573Z,21.53
2022-11-29T15:13:04.105Z,22.63
2022-11-29T15:18:17.575Z,23.23
2022-11-29T15:23:18.656Z,24.43
2022-11-29T15:28:27.517Z,23.30
2022-11-29T15:33:24.618Z,25.07
2022-11-29T15:38:20.939Z,25.73
2022-11-29T15:43:25.583Z,24.37
2022-11-29T15:48:23.587Z,27.80
2022-11-29T15:53:21.492Z,25.77
2022-11-29T15:58:14.245Z,27.23
2022-11-29T16:03:15.639Z,25.80
2022-11-29T16:08:17.533Z,27.23
2022-11-29T16:13:28.258Z,26.77
2022-11-29T16:18:23.454Z,26.20
2022-11-29T16:23:16.031Z,27.47
2022-11-29T16:28:12.625Z,26.33
2022-11-29T16:33:04.678Z,26.70
2022-11-29T16:37:57.234Z,27.40
2022-11-29T16:43:40.852Z,28.10
2022-11-29T16:48:38.326Z,26.40
2022-11-29T16:53:38.710Z,26.00
2022-11-29T16:58:30.947Z,25.47
2022-11-29T17:03:22.878Z,26.17
2022-11-29T17:08:15.005Z,26.60
2022-11-29T17:13:11.426Z,26.07
2022-11-29T17:18:03.399Z,25.13
2022-11-29T17:22:55.315Z,25.77
2022-11-29T17:27:47.250Z,23.50
2022-11-29T17:32:39.412Z,25.47
2022-11-29T17:37:31.531Z,24.97
2022-11-29T17:42:23.678Z,25.00
2022-11-29T17:47:15.803Z,26.20
2022-11-29T17:52:08.355Z,25.10
2022-11-29T17:57:00.920Z,23.30
2022-11-29T18:01:53.058Z,25.63
2022-11-29T18:06:49.785Z,24.73
2022-11-29T18:11:48.955Z,24.67
2022-11-29T18:16:41.548Z,27.40
2022-11-29T18:21:34.783Z,24.83
2022-11-29T18:26:28.331Z,25.87
2022-11-29T18:31:23.610Z,25.00
2022-11-29T18:36:21.190Z,25.73
2022-11-29T18:41:20.430Z,25.57
2022-11-29T18:46:16.688Z,26.70
2022-11-29T18:51:11.803Z,26.53
2022-11-29T18:56:15.726Z,28.83
2022-11-29T19:01:16.591Z,27.13
2022-11-29T19:06:17.316Z,27.03
2022-11-29T19:11:12.014Z,27.80
2022-11-29T19:16:05.317Z,27.63
2022-11-29T19:21:24.386Z,28.73
2022-11-29T19:26:16.465Z,28.50
2022-11-29T19:31:09.065Z,27.90
2022-11-29T19:36:10.840Z,29.23
2022-11-29T19:41:09.467Z,29.40
2022-11-29T19:46:12.805Z,28.40
2022-11-29T19:51:07.310Z,30.20
2022-11-29T19:55:59.686Z,27.90
2022-11-29T20:00:51.803Z,29.13
2022-11-29T20:05:52.681Z,29.63
2022-11-29T20:10:44.694Z,30.53
2022-11-29T20:15:36.961Z,30.27
2022-11-29T20:20:29.619Z,30.97
2022-11-29T20:25:21.649Z,29.33
2022-11-29T20:30:15.410Z,28.63
2022-11-29T20:35:09.176Z,29.97
2022-11-29T20:40:09.417Z,30.37
2022-11-29T20:45:04.117Z,28.20
2022-11-29T20:49:57.778Z,29.30
2022-11-29T20:54:49.762Z,28.40
2022-11-29T20:59:41.952Z,28.87
2022-11-29T21:04:33.958Z,28.03
2022-11-29T21:09:26.270Z,26.77
2022-11-29T21:14:18.893Z,26.70
2022-11-29T21:19:19.812Z,26.17
2022-11-29T21:24:30.260Z,25.10
2022-11-29T21:29:23.965Z,26.90
2022-11-29T21:34:15.977Z,26.80
2022-11-29T21:39:12.557Z,27.80
2022-11-29T21:44:07.440Z,27.90
2022-11-29T21:48:59.843Z,26.60
2022-11-29T21:53:51.818Z,25.70
2022-11-29T21:58:43.877Z,25.43
2022-11-29T22:03:35.963Z,25.73
2022-11-29T22:08:27.971Z,24.27
2022-11-29T22:13:19.922Z,25.40
2022-11-29T22:18:11.870Z,24.80
2022-11-29T22:23:03.835Z,25.00
2022-11-29T22:27:55.772Z,25.03
2022-11-29T22:32:47.719Z,23.07
2022-11-29T22:37:39.637Z,25.30
2022-11-29T22:42:31.685Z,23.93
2022-11-29T22:47:23.659Z,24.60
2022-11-29T22:52:15.589Z,23.10
2022-11-29T22:57:08.801Z,22.63
2022-11-29T23:02:00.750Z,24.17
2022-11-29T23:06:52.730Z,24.30
2022-11-29T23:11:46.133Z,23.50
2022-11-29T23:16:38.149Z,23.20
2022-11-29T23:21:32.892Z,23.47
2022-11-29T23:26:36.477Z,22.07
2022-11-29T23:31:28.687Z,23.00
2022-11-29T23:36:20.959Z,24.07
2022-11-29T23:41:13.154Z,23.33
2022-11-29T23:46:09.303Z,21.83
2022-11-29T23:51:01.471Z,23.13
2022-11-29T23:56:01.253Z,22.47
